Time,TemperatureF,DewpointF,PressureIn,WindDirection,WindDirectionDegrees,WindSpeedMPH,WindSpeedGustMPH,Humidity,HourlyPrecipIn,Conditions,Clouds,dailyrainin,SoftwareType,DateUTC
2013-03-02 00:00:00,57.7,49.5,29.97,NNW,327,2.0,6.0,74,0.00,,,0.00,meteohub,2013-03-02 05:00:00,
2013-03-02 00:05:00,57.7,49.5,29.97,WNW,296,2.0,7.0,74,0.00,,,0.00,meteohub,2013-03-02 05:05:00,
2013-03-02 00:11:00,57.7,49.5,29.98,WNW,294,1.0,7.0,74,0.00,,,0.00,meteohub,2013-03-02 05:11:00,
2013-03-02 00:16:00,57.7,49.5,29.97,NNW,340,1.0,6.0,74,0.00,,,0.00,meteohub,2013-03-02 05:16:00,
2013-03-02 00:21:00,57.6,48.9,29.96,NW,325,3.0,6.0,73,0.00,,,0.00,meteohub,2013-03-02 05:21:00,
2013-03-02 00:26:00,57.6,49.3,29.97,NW,314,3.0,8.0,74,0.00,,,0.00,meteohub,2013-03-02 05:26:00,
2013-03-02 00:31:00,57.6,48.9,29.96,NNW,335,2.0,8.0,73,0.00,,,0.00,meteohub,2013-03-02 05:31:00,
2013-03-02 00:36:00,57.4,48.7,29.97,NW,315,0.0,8.0,73,0.00,,,0.00,meteohub,2013-03-02 05:36:00,
2013-03-02 00:41:00,57.4,48.7,29.96,NNW,340,3.0,11.0,73,0.00,,,0.00,meteohub,2013-03-02 05:41:00,
2013-03-02 00:46:00,57.4,48.7,29.97,WNW,286,2.0,11.0,73,0.00,,,0.00,meteohub,2013-03-02 05:46:00,
2013-03-02 00:51:00,57.4,48.7,29.97,NW,317,1.0,11.0,73,0.00,,,0.00,meteohub,2013-03-02 05:51:00,
2013-03-02 00:56:00,57.4,48.7,29.97,WNW,290,2.0,6.0,73,0.00,,,0.00,meteohub,2013-03-02 05:56:00,
2013-03-02 01:01:00,57.4,48.7,29.97,WNW,303,2.0,7.0,73,0.00,,,0.00,meteohub,2013-03-02 06:01:00,
2013-03-02 01:06:00,57.4,48.7,29.97,WNW,292,4.0,7.0,73,0.00,,,0.00,meteohub,2013-03-02 06:06:00,
2013-03-02 01:11:00,57.4,48.7,29.96,NW,321,0.0,7.0,73,0.00,,,0.00,meteohub,2013-03-02 06:11:00,
2013-03-02 01:16:00,57.4,49.1,29.96,NW,314,3.0,7.0,74,0.00,,,0.00,meteohub,2013-03-02 06:16:00,
2013-03-02 01:21:00,57.2,48.9,29.97,NW,313,0.0,7.0,74,0.00,,,0.00,meteohub,2013-03-02 06:21:00,
2013-03-02 01:26:00,57.0,48.7,29.97,WNW,288,2.0,7.0,74,0.00,,,0.00,meteohub,2013-03-02 06:26:00,
2013-03-02 01:31:00,57.0,48.4,29.98,NW,313,1.0,7.0,73,0.00,,,0.00,meteohub,2013-03-02 06:31:00,
2013-03-02 01:36:00,57.0,48.7,29.98,NNW,338,5.0,7.0,74,0.00,,,0.00,meteohub,2013-03-02 06:36:00,
2013-03-02 01:41:00,56.8,48.6,29.97,NW,321,3.0,7.0,74,0.00,,,0.00,meteohub,2013-03-02 06:41:00,
2013-03-02 01:46:00,56.8,48.6,29.97,North,0,2.0,7.0,74,0.00,,,0.00,meteohub,2013-03-02 06:46:00,
2013-03-02 01:51:00,56.8,48.9,29.97,NW,311,0.0,7.0,75,0.00,,,0.00,meteohub,2013-03-02 06:51:00,
2013-03-02 01:56:00,56.8,48.6,29.97,WNW,284,3.0,7.0,74,0.00,,,0.00,meteohub,2013-03-02 06:56:00,
2013-03-02 02:01:00,56.7,46.9,29.97,NW,313,5.0,7.0,70,0.00,,,0.00,meteohub,2013-03-02 07:01:00,
2013-03-02 02:06:00,56.7,45.5,29.96,NE,48,1.0,7.0,66,0.00,,,0.00,meteohub,2013-03-02 07:06:00,
2013-03-02 02:11:00,56.7,43.7,29.96,NW,305,4.0,8.0,62,0.00,,,0.00,meteohub,2013-03-02 07:11:00,
2013-03-02 02:16:00,56.7,43.0,29.96,NNW,328,1.0,8.0,60,0.00,,,0.00,meteohub,2013-03-02 07:16:00,
2013-03-02 02:21:00,56.7,43.0,29.97,NNW,336,0.0,8.0,60,0.00,,,0.00,meteohub,2013-03-02 07:21:00,
2013-03-02 02:26:00,56.7,43.3,29.96,WNW,284,2.0,8.0,61,0.00,,,0.00,meteohub,2013-03-02 07:26:00,
2013-03-02 02:31:00,56.5,43.7,29.96,NW,319,0.0,8.0,62,0.00,,,0.00,meteohub,2013-03-02 07:31:00,
2013-03-02 02:36:00,56.5,44.1,29.96,NW,325,2.0,7.0,63,0.00,,,0.00,meteohub,2013-03-02 07:36:00,
2013-03-02 02:41:00,56.5,44.4,29.96,NNW,333,0.0,7.0,64,0.00,,,0.00,meteohub,2013-03-02 07:41:00,
2013-03-02 02:46:00,56.5,44.4,29.96,NNW,328,0.0,5.0,64,0.00,,,0.00,meteohub,2013-03-02 07:46:00,
2013-03-02 02:51:00,56.3,44.2,29.96,NNW,340,0.0,5.0,64,0.00,,,0.00,meteohub,2013-03-02 07:51:00,
2013-03-02 02:56:00,56.3,44.2,29.96,NW,325,3.0,6.0,64,0.00,,,0.00,meteohub,2013-03-02 07:56:00,
2013-03-02 03:01:00,56.3,44.2,29.96,NNW,327,0.0,6.0,64,0.00,,,0.00,meteohub,2013-03-02 08:01:00,
2013-03-02 03:06:00,56.1,43.3,29.96,NNW,327,0.0,6.0,62,0.00,,,0.00,meteohub,2013-03-02 08:06:00,
2013-03-02 03:11:00,56.1,41.5,29.96,WNW,303,3.0,5.0,58,0.00,,,0.00,meteohub,2013-03-02 08:11:00,
2013-03-02 03:16:00,56.1,41.5,29.96,NW,326,0.0,7.0,58,0.00,,,0.00,meteohub,2013-03-02 08:16:00,
2013-03-02 03:21:00,56.1,41.2,29.96,NW,323,5.0,8.0,57,0.00,,,0.00,meteohub,2013-03-02 08:21:00,
2013-03-02 03:27:00,55.9,41.0,29.96,North,355,2.0,9.0,57,0.00,,,0.00,meteohub,2013-03-02 08:27:00,
2013-03-02 03:32:00,55.9,41.4,29.96,NNW,327,2.0,9.0,58,0.00,,,0.00,meteohub,2013-03-02 08:32:00,
2013-03-02 03:37:00,55.9,41.0,29.97,NNW,342,0.0,9.0,57,0.00,,,0.00,meteohub,2013-03-02 08:37:00,
2013-03-02 03:42:00,55.8,41.2,29.97,WNW,299,1.0,7.0,58,0.00,,,0.00,meteohub,2013-03-02 08:42:00,
2013-03-02 03:47:00,55.8,42.1,29.97,ENE,65,0.0,7.0,60,0.00,,,0.00,meteohub,2013-03-02 08:47:00,
2013-03-02 03:52:00,55.8,42.1,29.96,North,355,0.0,6.0,60,0.00,,,0.00,meteohub,2013-03-02 08:52:00,
2013-03-02 03:57:00,55.6,41.5,29.97,NE,46,0.0,4.0,59,0.00,,,0.00,meteohub,2013-03-02 08:57:00,
2013-03-02 04:02:00,55.6,41.9,29.97,WNW,291,0.0,5.0,60,0.00,,,0.00,meteohub,2013-03-02 09:02:00,
2013-03-02 04:07:00,55.6,42.8,29.96,NW,308,0.0,5.0,62,0.00,,,0.00,meteohub,2013-03-02 09:07:00,
2013-03-02 04:12:00,55.6,41.9,29.97,West,281,4.0,6.0,60,0.00,,,0.00,meteohub,2013-03-02 09:12:00,
2013-03-02 04:17:00,55.6,42.8,29.97,NW,304,1.0,6.0,62,0.00,,,0.00,meteohub,2013-03-02 09:17:00,
2013-03-02 04:22:00,55.4,42.6,29.96,NNW,329,0.0,7.0,62,0.00,,,0.00,meteohub,2013-03-02 09:22:00,
2013-03-02 04:27:00,55.2,42.8,29.96,NNW,341,0.0,7.0,63,0.00,,,0.00,meteohub,2013-03-02 09:27:00,
2013-03-02 04:32:00,55.2,42.8,29.97,NW,317,3.0,7.0,63,0.00,,,0.00,meteohub,2013-03-02 09:32:00,
2013-03-02 04:37:00,55.2,42.8,29.97,WNW,297,2.0,5.0,63,0.00,,,0.00,meteohub,2013-03-02 09:37:00,
2013-03-02 04:42:00,55.2,43.7,29.98,NE,34,2.0,7.0,65,0.00,,,0.00,meteohub,2013-03-02 09:42:00,
2013-03-02 04:47:00,55.2,43.7,29.97,NNE,17,0.0,7.0,65,0.00,,,0.00,meteohub,2013-03-02 09:47:00,
2013-03-02 04:52:00,55.0,43.9,29.97,North,355,1.0,7.0,66,0.00,,,0.00,meteohub,2013-03-02 09:52:00,
2013-03-02 04:57:00,55.0,43.9,29.97,WSW,250,2.0,6.0,66,0.00,,,0.00,meteohub,2013-03-02 09:57:00,
2013-03-02 05:02:00,55.0,43.9,29.97,WNW,295,3.0,9.0,66,0.00,,,0.00,meteohub,2013-03-02 10:02:00,
2013-03-02 05:08:00,54.9,44.1,29.97,NNW,344,0.0,9.0,67,0.00,,,0.00,meteohub,2013-03-02 10:08:00,
2013-03-02 05:13:00,54.9,44.1,29.97,North,9,2.0,9.0,67,0.00,,,0.00,meteohub,2013-03-02 10:13:00,
2013-03-02 05:18:00,54.9,43.7,29.97,NNW,342,2.0,6.0,66,0.00,,,0.00,meteohub,2013-03-02 10:18:00,
2013-03-02 05:23:00,54.7,43.5,29.98,NNE,13,3.0,4.0,66,0.00,,,0.00,meteohub,2013-03-02 10:23:00,
2013-03-02 05:28:00,54.7,43.5,29.98,NNE,13,2.0,5.0,66,0.00,,,0.00,meteohub,2013-03-02 10:28:00,
2013-03-02 05:33:00,54.7,43.9,29.99,NNW,340,0.0,5.0,67,0.00,,,0.00,meteohub,2013-03-02 10:33:00,
2013-03-02 05:38:00,54.7,43.5,29.98,WNW,292,2.0,5.0,66,0.00,,,0.00,meteohub,2013-03-02 10:38:00,
2013-03-02 05:43:00,54.5,43.3,29.98,NE,47,0.0,6.0,66,0.00,,,0.00,meteohub,2013-03-02 10:43:00,
2013-03-02 05:48:00,54.3,43.5,29.99,WNW,292,2.0,6.0,67,0.00,,,0.00,meteohub,2013-03-02 10:48:00,
2013-03-02 05:53:00,54.3,43.5,29.99,NW,323,0.0,6.0,67,0.00,,,0.00,meteohub,2013-03-02 10:53:00,
2013-03-02 05:58:00,54.3,43.5,29.99,North,5,1.0,7.0,67,0.00,,,0.00,meteohub,2013-03-02 10:58:00,
2013-03-02 06:03:00,54.3,43.2,29.99,NNW,332,1.0,10.0,66,0.00,,,0.00,meteohub,2013-03-02 11:03:00,
2013-03-02 06:08:00,54.3,43.5,30.00,NNE,13,1.0,10.0,67,0.00,,,0.00,meteohub,2013-03-02 11:08:00,
2013-03-02 06:13:00,54.3,43.5,30.00,NW,318,1.0,10.0,67,0.00,,,0.00,meteohub,2013-03-02 11:13:00,
2013-03-02 06:18:00,54.3,43.5,30.01,NW,323,2.0,6.0,67,0.00,,,0.00,meteohub,2013-03-02 11:18:00,
2013-03-02 06:23:00,54.3,43.2,30.01,WNW,295,2.0,7.0,66,0.00,,,0.00,meteohub,2013-03-02 11:23:00,
2013-03-02 06:28:00,54.1,43.0,30.01,WNW,302,1.0,7.0,66,0.00,,,0.00,meteohub,2013-03-02 11:28:00,
2013-03-02 06:33:00,54.1,43.0,30.01,North,350,2.0,7.0,66,0.00,,,0.00,meteohub,2013-03-02 11:33:00,
2013-03-02 06:38:00,54.0,43.3,30.01,WNW,293,2.0,8.0,67,0.00,,,0.00,meteohub,2013-03-02 11:38:00,
2013-03-02 06:43:00,54.0,43.3,30.01,NNE,20,3.0,8.0,67,0.00,,,0.00,meteohub,2013-03-02 11:43:00,
2013-03-02 06:48:00,54.0,43.7,30.02,NE,47,1.0,8.0,68,0.00,,,0.00,meteohub,2013-03-02 11:48:00,
2013-03-02 06:53:00,53.8,43.2,30.02,NNW,340,0.0,7.0,67,0.00,,,0.00,meteohub,2013-03-02 11:53:00,
2013-03-02 06:58:00,53.8,43.5,30.01,NW,319,2.0,10.0,68,0.00,,,0.00,meteohub,2013-03-02 11:58:00,
2013-03-02 07:03:00,53.6,43.3,30.02,NW,321,2.0,10.0,68,0.00,,,0.00,meteohub,2013-03-02 12:03:00,
2013-03-02 07:08:00,53.4,42.8,30.02,NNW,338,0.0,12.0,67,0.00,,,0.00,meteohub,2013-03-02 12:08:00,
2013-03-02 07:13:00,53.4,42.3,30.02,North,0,2.0,12.0,66,0.00,,,0.00,meteohub,2013-03-02 12:13:00,
2013-03-02 07:18:00,53.4,42.3,30.02,NNW,329,2.0,12.0,66,0.00,,,0.00,meteohub,2013-03-02 12:18:00,
2013-03-02 07:23:00,53.4,42.3,30.02,NNW,332,2.0,10.0,66,0.00,,,0.00,meteohub,2013-03-02 12:23:00,
2013-03-02 07:28:00,53.4,42.3,30.03,NW,319,0.0,10.0,66,0.00,,,0.00,meteohub,2013-03-02 12:28:00,
2013-03-02 07:33:00,53.4,42.3,30.02,North,11,0.0,10.0,66,0.00,,,0.00,meteohub,2013-03-02 12:33:00,
2013-03-02 07:38:00,53.4,42.8,30.03,NE,48,2.0,10.0,67,0.00,,,0.00,meteohub,2013-03-02 12:38:00,
2013-03-02 07:43:00,53.4,43.2,30.04,North,5,1.0,10.0,68,0.00,,,0.00,meteohub,2013-03-02 12:43:00,
2013-03-02 07:48:00,53.4,41.9,30.03,North,355,4.0,7.0,65,0.00,,,0.00,meteohub,2013-03-02 12:48:00,
2013-03-02 07:53:00,53.2,40.1,30.03,NE,51,2.0,7.0,61,0.00,,,0.00,meteohub,2013-03-02 12:53:00,
2013-03-02 07:58:00,53.2,40.6,30.03,North,10,3.0,7.0,62,0.00,,,0.00,meteohub,2013-03-02 12:58:00,
2013-03-02 08:03:00,53.2,40.1,30.03,NNE,13,0.0,8.0,61,0.00,,,0.00,meteohub,2013-03-02 13:03:00,
2013-03-02 08:08:00,53.2,40.1,30.04,WNW,298,2.0,8.0,61,0.00,,,0.00,meteohub,2013-03-02 13:08:00,
2013-03-02 08:13:00,53.2,38.8,30.04,NNW,337,0.0,8.0,58,0.00,,,0.00,meteohub,2013-03-02 13:13:00,
2013-03-02 08:18:00,53.2,39.2,30.04,NNE,15,1.0,6.0,59,0.00,,,0.00,meteohub,2013-03-02 13:18:00,
2013-03-02 08:24:00,53.4,39.4,30.03,North,10,0.0,6.0,59,0.00,,,0.00,meteohub,2013-03-02 13:24:00,
2013-03-02 08:29:00,53.4,38.5,30.04,North,355,1.0,6.0,57,0.00,,,0.00,meteohub,2013-03-02 13:29:00,
2013-03-02 08:34:00,53.6,38.7,30.04,NW,326,0.0,4.0,57,0.00,,,0.00,meteohub,2013-03-02 13:34:00,
2013-03-02 08:39:00,53.6,37.8,30.03,North,355,0.0,4.0,55,0.00,,,0.00,meteohub,2013-03-02 13:39:00,
2013-03-02 08:44:00,53.8,38.5,30.03,North,5,0.0,5.0,56,0.00,,,0.00,meteohub,2013-03-02 13:44:00,
2013-03-02 08:49:00,54.0,38.1,30.03,NNW,348,0.0,5.0,55,0.00,,,0.00,meteohub,2013-03-02 13:49:00,
2013-03-02 08:54:00,54.1,37.4,30.03,NNW,335,0.0,5.0,53,0.00,,,0.00,meteohub,2013-03-02 13:54:00,
2013-03-02 08:59:00,54.3,37.0,30.02,North,350,0.0,4.0,52,0.00,,,0.00,meteohub,2013-03-02 13:59:00,
2013-03-02 09:04:00,54.3,37.0,30.02,NNW,327,0.0,6.0,52,0.00,,,0.00,meteohub,2013-03-02 14:04:00,
2013-03-02 09:09:00,54.7,38.3,30.02,North,355,0.0,6.0,54,0.00,,,0.00,meteohub,2013-03-02 14:09:00,
2013-03-02 09:14:00,54.9,37.0,30.02,WNW,294,0.0,6.0,51,0.00,,,0.00,meteohub,2013-03-02 14:14:00,
2013-03-02 09:19:00,55.0,38.3,30.03,WNW,299,0.0,4.0,53,0.00,,,0.00,meteohub,2013-03-02 14:19:00,
2013-03-02 09:24:00,55.2,36.9,30.02,NE,42,0.0,4.0,50,0.00,,,0.00,meteohub,2013-03-02 14:24:00,
2013-03-02 09:29:00,55.4,37.0,30.03,NNE,16,0.0,4.0,50,0.00,,,0.00,meteohub,2013-03-02 14:29:00,
2013-03-02 09:34:00,55.9,37.6,30.03,North,355,0.0,4.0,50,0.00,,,0.00,meteohub,2013-03-02 14:34:00,
2013-03-02 09:39:00,56.7,37.8,30.03,NNW,333,0.0,4.0,49,0.00,,,0.00,meteohub,2013-03-02 14:39:00,
2013-03-02 09:44:00,57.2,37.8,30.03,NNW,341,0.0,1.0,48,0.00,,,0.00,meteohub,2013-03-02 14:44:00,
2013-03-02 09:49:00,57.4,37.9,30.02,NNE,15,0.0,3.0,48,0.00,,,0.00,meteohub,2013-03-02 14:49:00,
2013-03-02 09:54:00,57.4,38.8,30.02,NNW,342,0.0,4.0,50,0.00,,,0.00,meteohub,2013-03-02 14:54:00,
2013-03-02 09:59:00,57.7,38.7,30.03,NNW,344,0.0,4.0,49,0.00,,,0.00,meteohub,2013-03-02 14:59:00,
2013-03-02 10:04:00,57.9,37.2,30.03,NW,315,3.0,6.0,46,0.00,,,0.00,meteohub,2013-03-02 15:04:00,
2013-03-02 10:09:00,57.9,37.8,30.02,North,11,2.0,6.0,47,0.00,,,0.00,meteohub,2013-03-02 15:09:00,
2013-03-02 10:14:00,58.3,37.6,30.03,NNW,337,1.0,6.0,46,0.00,,,0.00,meteohub,2013-03-02 15:14:00,
2013-03-02 10:19:00,58.6,36.9,30.03,North,351,0.0,5.0,44,0.00,,,0.00,meteohub,2013-03-02 15:19:00,
2013-03-02 10:24:00,58.8,37.0,30.03,North,351,0.0,4.0,44,0.00,,,0.00,meteohub,2013-03-02 15:24:00,
2013-03-02 10:29:00,58.6,36.9,30.03,NE,41,2.0,6.0,44,0.00,,,0.00,meteohub,2013-03-02 15:29:00,
2013-03-02 10:34:00,58.3,37.6,30.03,NNW,344,0.0,6.0,46,0.00,,,0.00,meteohub,2013-03-02 15:34:00,
2013-03-02 10:39:00,58.5,37.2,30.03,NNW,336,0.0,6.0,45,0.00,,,0.00,meteohub,2013-03-02 15:39:00,
2013-03-02 10:44:00,59.0,37.0,30.03,NW,313,1.0,5.0,44,0.00,,,0.00,meteohub,2013-03-02 15:44:00,
2013-03-02 10:49:00,59.4,37.9,30.03,NNW,346,0.0,4.0,45,0.00,,,0.00,meteohub,2013-03-02 15:49:00,
2013-03-02 10:54:00,59.7,38.3,30.02,NNW,340,0.0,4.0,45,0.00,,,0.00,meteohub,2013-03-02 15:54:00,
2013-03-02 10:59:00,60.3,39.4,30.01,NW,324,2.0,4.0,46,0.00,,,0.00,meteohub,2013-03-02 15:59:00,
2013-03-02 11:04:00,60.6,38.7,30.01,North,9,1.0,4.0,44,0.00,,,0.00,meteohub,2013-03-02 16:04:00,
2013-03-02 11:09:00,60.6,37.9,30.01,North,0,0.0,5.0,43,0.00,,,0.00,meteohub,2013-03-02 16:09:00,
2013-03-02 11:14:00,61.0,38.8,30.02,North,355,1.0,6.0,44,0.00,,,0.00,meteohub,2013-03-02 16:14:00,
2013-03-02 11:19:00,61.5,38.8,30.02,WNW,296,3.0,6.0,43,0.00,,,0.00,meteohub,2013-03-02 16:19:00,
2013-03-02 11:24:00,61.9,39.7,30.01,NW,314,3.0,7.0,44,0.00,,,0.00,meteohub,2013-03-02 16:24:00,
2013-03-02 11:29:00,62.2,39.4,30.01,NW,323,2.0,7.0,43,0.00,,,0.00,meteohub,2013-03-02 16:29:00,
2013-03-02 11:34:00,62.2,39.4,30.01,North,0,2.0,7.0,43,0.00,,,0.00,meteohub,2013-03-02 16:34:00,
2013-03-02 11:39:00,62.2,38.8,30.01,WNW,298,5.0,7.0,42,0.00,,,0.00,meteohub,2013-03-02 16:39:00,
2013-03-02 11:44:00,62.2,39.4,30.01,NNW,332,2.0,7.0,43,0.00,,,0.00,meteohub,2013-03-02 16:44:00,
2013-03-02 11:49:00,63.0,40.6,30.01,NNW,341,1.0,7.0,44,0.00,,,0.00,meteohub,2013-03-02 16:49:00,
2013-03-02 11:54:00,63.1,41.5,30.01,NNW,338,4.0,6.0,45,0.00,,,0.00,meteohub,2013-03-02 16:54:00,
2013-03-02 11:59:00,63.1,40.3,30.01,NNW,345,1.0,9.0,43,0.00,,,0.00,meteohub,2013-03-02 16:59:00,
2013-03-02 12:04:00,63.0,39.6,30.00,West,279,4.0,9.0,42,0.00,,,0.00,meteohub,2013-03-02 17:04:00,
2013-03-02 12:09:00,63.5,40.6,30.00,NNW,333,1.0,9.0,43,0.00,,,0.00,meteohub,2013-03-02 17:09:00,
2013-03-02 12:14:00,64.8,41.2,29.99,NNE,19,2.0,6.0,42,0.00,,,0.00,meteohub,2013-03-02 17:14:00,
2013-03-02 12:19:00,65.1,40.8,29.99,NNE,33,2.0,5.0,41,0.00,,,0.00,meteohub,2013-03-02 17:19:00,
2013-03-02 12:24:00,65.5,41.2,29.99,NNW,343,5.0,11.0,41,0.00,,,0.00,meteohub,2013-03-02 17:24:00,
2013-03-02 12:29:00,64.9,41.9,29.98,NNE,13,3.0,11.0,43,0.00,,,0.00,meteohub,2013-03-02 17:29:00,
2013-03-02 12:34:00,64.9,42.4,29.98,NNW,331,2.0,11.0,44,0.00,,,0.00,meteohub,2013-03-02 17:34:00,
2013-03-02 12:39:00,64.9,42.4,29.98,NW,310,2.0,10.0,44,0.00,,,0.00,meteohub,2013-03-02 17:39:00,
2013-03-02 12:44:00,64.2,41.9,29.98,WNW,296,8.0,12.0,44,0.00,,,0.00,meteohub,2013-03-02 17:44:00,
2013-03-02 12:49:00,64.6,42.8,29.98,NW,305,9.0,12.0,45,0.00,,,0.00,meteohub,2013-03-02 17:49:00,
2013-03-02 12:55:00,64.6,42.3,29.98,SW,223,9.0,13.0,44,0.00,,,0.00,meteohub,2013-03-02 17:55:00,
2013-03-02 13:00:00,64.8,43.0,29.98,NW,311,4.0,13.0,45,0.00,,,0.00,meteohub,2013-03-02 18:00:00,
2013-03-02 13:05:00,65.1,42.6,29.98,NNW,330,3.0,18.0,44,0.00,,,0.00,meteohub,2013-03-02 18:05:00,
2013-03-02 13:10:00,65.1,43.3,29.98,NW,315,3.0,18.0,45,0.00,,,0.00,meteohub,2013-03-02 18:10:00,
2013-03-02 13:15:00,64.9,42.4,29.98,NW,322,7.0,18.0,44,0.00,,,0.00,meteohub,2013-03-02 18:15:00,
2013-03-02 13:20:00,64.8,43.5,29.98,NNW,348,5.0,16.0,46,0.00,,,0.00,meteohub,2013-03-02 18:20:00,
2013-03-02 13:25:00,64.9,43.2,29.97,WSW,255,5.0,12.0,45,0.00,,,0.00,meteohub,2013-03-02 18:25:00,
2013-03-02 13:30:00,65.8,43.9,29.97,NNW,334,8.0,12.0,45,0.00,,,0.00,meteohub,2013-03-02 18:30:00,
2013-03-02 13:35:00,66.0,44.1,29.97,NNW,342,3.0,12.0,45,0.00,,,0.00,meteohub,2013-03-02 18:35:00,
2013-03-02 13:40:00,66.2,44.2,29.96,NNW,347,0.0,12.0,45,0.00,,,0.00,meteohub,2013-03-02 18:40:00,
2013-03-02 13:45:00,66.0,44.1,29.96,NNE,17,3.0,17.0,45,0.00,,,0.00,meteohub,2013-03-02 18:45:00,
2013-03-02 13:50:00,65.7,43.7,29.96,NW,316,9.0,17.0,45,0.00,,,0.00,meteohub,2013-03-02 18:50:00,
2013-03-02 13:55:00,65.5,43.5,29.96,NW,306,4.0,18.0,45,0.00,,,0.00,meteohub,2013-03-02 18:55:00,
2013-03-02 14:00:00,65.5,44.2,29.96,NW,311,2.0,18.0,46,0.00,,,0.00,meteohub,2013-03-02 19:00:00,
2013-03-02 14:05:00,65.7,43.7,29.96,NW,313,6.0,18.0,45,0.00,,,0.00,meteohub,2013-03-02 19:05:00,
2013-03-02 14:10:00,65.1,43.3,29.95,NW,306,5.0,18.0,45,0.00,,,0.00,meteohub,2013-03-02 19:10:00,
2013-03-02 14:15:00,65.7,44.2,29.96,North,11,5.0,18.0,46,0.00,,,0.00,meteohub,2013-03-02 19:15:00,
2013-03-02 14:20:00,65.5,43.5,29.95,North,0,7.0,18.0,45,0.00,,,0.00,meteohub,2013-03-02 19:20:00,
2013-03-02 14:25:00,65.8,43.9,29.95,NE,54,4.0,14.0,45,0.00,,,0.00,meteohub,2013-03-02 19:25:00,
2013-03-02 14:30:00,65.7,43.2,29.96,WNW,302,9.0,18.0,44,0.00,,,0.00,meteohub,2013-03-02 19:30:00,
2013-03-02 14:35:00,65.3,42.8,29.96,NNE,32,3.0,18.0,44,0.00,,,0.00,meteohub,2013-03-02 19:35:00,
2013-03-02 14:40:00,64.8,43.0,29.96,North,350,1.0,18.0,45,0.00,,,0.00,meteohub,2013-03-02 19:40:00,
2013-03-02 14:45:00,64.9,42.4,29.96,NNW,342,7.0,18.0,44,0.00,,,0.00,meteohub,2013-03-02 19:45:00,
2013-03-02 14:50:00,65.3,44.1,29.96,West,275,1.0,17.0,46,0.00,,,0.00,meteohub,2013-03-02 19:50:00,
2013-03-02 14:55:00,65.1,42.6,29.96,NW,311,10.0,14.0,44,0.00,,,0.00,meteohub,2013-03-02 19:55:00,
2013-03-02 15:00:00,64.8,42.3,29.96,SSE,154,4.0,14.0,44,0.00,,,0.00,meteohub,2013-03-02 20:00:00,
2013-03-02 15:05:00,64.0,41.7,29.96,NW,310,5.0,14.0,44,0.00,,,0.00,meteohub,2013-03-02 20:05:00,
2013-03-02 15:10:00,63.7,41.4,29.96,WSW,255,3.0,15.0,44,0.00,,,0.00,meteohub,2013-03-02 20:10:00,
2013-03-02 15:15:00,63.0,40.6,29.97,WSW,240,2.0,18.0,44,0.00,,,0.00,meteohub,2013-03-02 20:15:00,
2013-03-02 15:20:00,62.4,41.4,29.97,NW,325,3.0,18.0,46,0.00,,,0.00,meteohub,2013-03-02 20:20:00,
2013-03-02 15:25:00,62.2,41.7,29.97,West,266,6.0,20.0,47,0.00,,,0.00,meteohub,2013-03-02 20:25:00,
2013-03-02 15:30:00,62.2,41.2,29.97,NW,318,5.0,20.0,46,0.00,,,0.00,meteohub,2013-03-02 20:30:00,
2013-03-02 15:35:00,62.2,41.2,29.97,NNW,337,8.0,20.0,46,0.00,,,0.00,meteohub,2013-03-02 20:35:00,
2013-03-02 15:40:00,62.1,40.5,29.97,NW,310,2.0,17.0,45,0.00,,,0.00,meteohub,2013-03-02 20:40:00,
2013-03-02 15:45:00,62.2,41.2,29.97,NNW,338,1.0,17.0,46,0.00,,,0.00,meteohub,2013-03-02 20:45:00,
2013-03-02 15:50:00,61.9,40.8,29.97,NW,326,4.0,17.0,46,0.00,,,0.00,meteohub,2013-03-02 20:50:00,
2013-03-02 15:55:00,61.9,41.4,29.97,WNW,299,5.0,13.0,47,0.00,,,0.00,meteohub,2013-03-02 20:55:00,
2013-03-02 16:00:00,61.7,40.6,29.97,NNW,346,2.0,12.0,46,0.00,,,0.00,meteohub,2013-03-02 21:00:00,
2013-03-02 16:05:00,62.1,42.1,29.97,NW,304,4.0,12.0,48,0.00,,,0.00,meteohub,2013-03-02 21:05:00,
2013-03-02 16:10:00,62.6,41.5,29.97,NW,319,1.0,10.0,46,0.00,,,0.00,meteohub,2013-03-02 21:10:00,
2013-03-02 16:15:00,62.2,41.2,29.97,NW,318,3.0,11.0,46,0.00,,,0.00,meteohub,2013-03-02 21:15:00,
2013-03-02 16:20:00,62.1,41.5,29.97,WNW,292,3.0,11.0,47,0.00,,,0.00,meteohub,2013-03-02 21:20:00,
2013-03-02 16:25:00,61.5,41.2,29.97,North,5,1.0,11.0,47,0.00,,,0.00,meteohub,2013-03-02 21:25:00,
2013-03-02 16:30:00,61.7,41.9,29.97,NW,322,3.0,9.0,48,0.00,,,0.00,meteohub,2013-03-02 21:30:00,
2013-03-02 16:36:00,61.9,41.9,29.97,WNW,286,2.0,8.0,48,0.00,,,0.00,meteohub,2013-03-02 21:36:00,
2013-03-02 16:41:00,61.3,41.5,29.97,North,5,2.0,8.0,48,0.00,,,0.00,meteohub,2013-03-02 21:41:00,
2013-03-02 16:46:00,61.0,41.7,29.97,NW,306,3.0,8.0,49,0.00,,,0.00,meteohub,2013-03-02 21:46:00,
2013-03-02 16:51:00,60.6,41.9,29.97,West,276,2.0,9.0,50,0.00,,,0.00,meteohub,2013-03-02 21:51:00,
2013-03-02 16:56:00,60.6,41.9,29.97,WNW,298,3.0,9.0,50,0.00,,,0.00,meteohub,2013-03-02 21:56:00,
2013-03-02 17:01:00,61.0,42.3,29.97,NNW,333,3.0,9.0,50,0.00,,,0.00,meteohub,2013-03-02 22:01:00,
2013-03-02 17:06:00,61.3,42.6,29.97,NNW,343,1.0,7.0,50,0.00,,,0.00,meteohub,2013-03-02 22:06:00,
2013-03-02 17:11:00,61.5,42.6,29.97,NNW,345,2.0,7.0,50,0.00,,,0.00,meteohub,2013-03-02 22:11:00,
2013-03-02 17:16:00,61.7,42.3,29.98,NNW,331,5.0,7.0,49,0.00,,,0.00,meteohub,2013-03-02 22:16:00,
2013-03-02 17:21:00,61.5,42.3,29.97,NW,323,3.0,10.0,49,0.00,,,0.00,meteohub,2013-03-02 22:21:00,
2013-03-02 17:26:00,61.2,43.0,29.98,NW,307,3.0,10.0,51,0.00,,,0.00,meteohub,2013-03-02 22:26:00,
2013-03-02 17:31:00,60.6,43.0,29.98,NW,322,1.0,10.0,52,0.00,,,0.00,meteohub,2013-03-02 22:31:00,
2013-03-02 17:36:00,60.4,42.8,29.98,NW,304,3.0,8.0,52,0.00,,,0.00,meteohub,2013-03-02 22:36:00,
2013-03-02 17:41:00,60.3,43.0,29.98,NNW,339,4.0,8.0,53,0.00,,,0.00,meteohub,2013-03-02 22:41:00,
2013-03-02 17:46:00,60.3,42.6,29.99,WNW,294,5.0,8.0,52,0.00,,,0.00,meteohub,2013-03-02 22:46:00,
2013-03-02 17:51:00,59.9,42.3,29.99,NW,311,2.0,9.0,52,0.00,,,0.00,meteohub,2013-03-02 22:51:00,
2013-03-02 17:56:00,59.5,41.9,29.99,NNW,333,2.0,9.0,52,0.00,,,0.00,meteohub,2013-03-02 22:56:00,
2013-03-02 18:01:00,59.4,42.8,29.99,North,350,1.0,9.0,54,0.00,,,0.00,meteohub,2013-03-02 23:01:00,
2013-03-02 18:06:00,59.0,41.9,29.99,North,355,4.0,8.0,53,0.00,,,0.00,meteohub,2013-03-02 23:06:00,
2013-03-02 18:11:00,58.8,42.3,29.99,WNW,302,4.0,8.0,54,0.00,,,0.00,meteohub,2013-03-02 23:11:00,
2013-03-02 18:16:00,58.5,40.5,29.99,NW,321,0.0,7.0,51,0.00,,,0.00,meteohub,2013-03-02 23:16:00,
2013-03-02 18:21:00,58.3,41.2,30.00,NNW,329,0.0,10.0,53,0.00,,,0.00,meteohub,2013-03-02 23:21:00,
2013-03-02 18:26:00,57.9,40.8,29.99,NW,304,3.0,10.0,53,0.00,,,0.00,meteohub,2013-03-02 23:26:00,
2013-03-02 18:31:00,57.7,41.7,30.00,West,279,1.0,10.0,55,0.00,,,0.00,meteohub,2013-03-02 23:31:00,
2013-03-02 18:36:00,57.6,41.5,30.00,NW,313,1.0,8.0,55,0.00,,,0.00,meteohub,2013-03-02 23:36:00,
2013-03-02 18:41:00,57.4,41.4,30.00,NW,309,3.0,8.0,55,0.00,,,0.00,meteohub,2013-03-02 23:41:00,
2013-03-02 18:46:00,57.0,41.5,30.00,NNW,329,1.0,8.0,56,0.00,,,0.00,meteohub,2013-03-02 23:46:00,
2013-03-02 18:51:00,57.0,41.9,30.00,WNW,295,0.0,8.0,57,0.00,,,0.00,meteohub,2013-03-02 23:51:00,
2013-03-02 18:56:00,56.8,41.7,30.01,NW,319,0.0,6.0,57,0.00,,,0.00,meteohub,2013-03-02 23:56:00,
2013-03-02 19:01:00,56.8,41.7,30.01,NW,316,1.0,5.0,57,0.00,,,0.00,meteohub,2013-03-03 00:01:00,
2013-03-02 19:06:00,56.7,42.1,30.01,North,0,0.0,5.0,58,0.00,,,0.00,meteohub,2013-03-03 00:06:00,
2013-03-02 19:11:00,56.7,42.4,30.02,NNW,328,0.0,5.0,59,0.00,,,0.00,meteohub,2013-03-03 00:11:00,
2013-03-02 19:16:00,56.5,41.9,30.01,NNW,333,0.0,5.0,58,0.00,,,0.00,meteohub,2013-03-03 00:16:00,
2013-03-02 19:21:00,56.5,41.9,30.02,NNW,336,4.0,5.0,58,0.00,,,0.00,meteohub,2013-03-03 00:21:00,
2013-03-02 19:27:00,56.5,41.9,30.02,NW,324,0.0,6.0,58,0.00,,,0.00,meteohub,2013-03-03 00:27:00,
2013-03-02 19:32:00,56.5,41.9,30.02,NNW,329,2.0,6.0,58,0.00,,,0.00,meteohub,2013-03-03 00:32:00,
2013-03-02 19:37:00,56.3,42.1,30.02,NNW,331,2.0,6.0,59,0.00,,,0.00,meteohub,2013-03-03 00:37:00,
2013-03-02 19:42:00,56.1,41.5,30.02,WNW,302,1.0,5.0,58,0.00,,,0.00,meteohub,2013-03-03 00:42:00,
2013-03-02 19:47:00,56.1,41.9,30.02,NW,306,2.0,6.0,59,0.00,,,0.00,meteohub,2013-03-03 00:47:00,
2013-03-02 19:52:00,55.9,41.9,30.03,NW,322,0.0,6.0,59,0.00,,,0.00,meteohub,2013-03-03 00:52:00,
2013-03-02 19:57:00,55.9,41.9,30.03,WNW,298,0.0,6.0,59,0.00,,,0.00,meteohub,2013-03-03 00:57:00,
2013-03-02 20:02:00,55.9,42.3,30.03,NW,314,0.0,5.0,60,0.00,,,0.00,meteohub,2013-03-03 01:02:00,
2013-03-02 20:07:00,55.9,42.6,30.03,WNW,296,0.0,5.0,61,0.00,,,0.00,meteohub,2013-03-03 01:07:00,
2013-03-02 20:12:00,55.8,42.1,30.03,NNW,330,0.0,6.0,60,0.00,,,0.00,meteohub,2013-03-03 01:12:00,
2013-03-02 20:17:00,55.8,42.1,30.03,NW,310,0.0,6.0,60,0.00,,,0.00,meteohub,2013-03-03 01:17:00,
2013-03-02 20:22:00,55.6,42.3,30.03,WNW,292,0.0,6.0,61,0.00,,,0.00,meteohub,2013-03-03 01:22:00,
2013-03-02 20:27:00,55.6,42.3,30.03,WNW,283,1.0,4.0,61,0.00,,,0.00,meteohub,2013-03-03 01:27:00,
2013-03-02 20:32:00,55.2,42.8,30.03,WNW,283,0.0,3.0,63,0.00,,,0.00,meteohub,2013-03-03 01:32:00,
2013-03-02 20:37:00,55.2,42.8,30.03,NW,304,1.0,3.0,63,0.00,,,0.00,meteohub,2013-03-03 01:37:00,
2013-03-02 20:42:00,55.2,42.8,30.04,West,279,0.0,4.0,63,0.00,,,0.00,meteohub,2013-03-03 01:42:00,
2013-03-02 20:47:00,55.0,42.6,30.04,West,268,0.0,4.0,63,0.00,,,0.00,meteohub,2013-03-03 01:47:00,
2013-03-02 20:52:00,55.0,43.2,30.03,WNW,284,0.0,4.0,64,0.00,,,0.00,meteohub,2013-03-03 01:52:00,
2013-03-02 20:57:00,54.9,43.0,30.03,WNW,286,1.0,4.0,64,0.00,,,0.00,meteohub,2013-03-03 01:57:00,
2013-03-02 21:02:00,54.9,43.3,30.03,WNW,286,0.0,2.0,65,0.00,,,0.00,meteohub,2013-03-03 02:02:00,
2013-03-02 21:07:00,54.7,43.2,30.03,WNW,286,0.0,1.0,65,0.00,,,0.00,meteohub,2013-03-03 02:07:00,
2013-03-02 21:12:00,54.7,43.2,30.04,WNW,286,0.0,1.0,65,0.00,,,0.00,meteohub,2013-03-03 02:12:00,
2013-03-02 21:17:00,54.7,43.2,30.04,WNW,284,1.0,1.0,65,0.00,,,0.00,meteohub,2013-03-03 02:17:00,
2013-03-02 21:22:00,54.7,43.2,30.04,West,273,0.0,2.0,65,0.00,,,0.00,meteohub,2013-03-03 02:22:00,
2013-03-02 21:27:00,54.7,43.2,30.04,West,273,0.0,2.0,65,0.00,,,0.00,meteohub,2013-03-03 02:27:00,
2013-03-02 21:32:00,54.3,43.2,30.04,West,273,0.0,2.0,66,0.00,,,0.00,meteohub,2013-03-03 02:32:00,
2013-03-02 21:37:00,54.3,43.2,30.04,West,265,0.0,2.0,66,0.00,,,0.00,meteohub,2013-03-03 02:37:00,
2013-03-02 21:42:00,54.1,43.0,30.04,WNW,285,0.0,3.0,66,0.00,,,0.00,meteohub,2013-03-03 02:42:00,
2013-03-02 21:47:00,54.1,43.3,30.04,WNW,285,0.0,3.0,67,0.00,,,0.00,meteohub,2013-03-03 02:47:00,
2013-03-02 21:52:00,54.0,43.3,30.04,West,273,4.0,4.0,67,0.00,,,0.00,meteohub,2013-03-03 02:52:00,
2013-03-02 21:57:00,54.0,42.8,30.04,NW,318,0.0,4.0,66,0.00,,,0.00,meteohub,2013-03-03 02:57:00,
2013-03-02 22:02:00,54.0,43.3,30.04,WNW,286,0.0,4.0,67,0.00,,,0.00,meteohub,2013-03-03 03:02:00,
2013-03-02 22:07:00,53.8,42.6,30.04,WNW,286,0.0,4.0,66,0.00,,,0.00,meteohub,2013-03-03 03:07:00,
2013-03-02 22:12:00,53.6,43.0,30.04,WNW,286,0.0,2.0,67,0.00,,,0.00,meteohub,2013-03-03 03:12:00,
2013-03-02 22:17:00,53.4,42.8,30.03,NW,317,0.0,2.0,67,0.00,,,0.00,meteohub,2013-03-03 03:17:00,
2013-03-02 22:22:00,53.2,43.0,30.03,NW,317,0.0,2.0,68,0.00,,,0.00,meteohub,2013-03-03 03:22:00,
2013-03-02 22:27:00,53.1,42.8,30.04,NW,311,0.0,2.0,68,0.00,,,0.00,meteohub,2013-03-03 03:27:00,
2013-03-02 22:32:00,52.9,43.0,30.04,NW,313,0.0,1.0,69,0.00,,,0.00,meteohub,2013-03-03 03:32:00,
2013-03-02 22:37:00,52.5,42.6,30.04,NW,313,0.0,1.0,69,0.00,,,0.00,meteohub,2013-03-03 03:37:00,
2013-03-02 22:42:00,52.3,43.2,30.03,NW,313,0.0,1.0,71,0.00,,,0.00,meteohub,2013-03-03 03:42:00,
2013-03-02 22:47:00,52.2,43.0,30.04,NW,313,0.0,0.0,71,0.00,,,0.00,meteohub,2013-03-03 03:47:00,
2013-03-02 22:52:00,52.0,43.2,30.03,NW,313,0.0,0.0,72,0.00,,,0.00,meteohub,2013-03-03 03:52:00,
2013-03-02 22:57:00,51.6,43.0,30.04,NW,313,0.0,0.0,72,0.00,,,0.00,meteohub,2013-03-03 03:57:00,
2013-03-02 23:02:00,51.4,43.2,30.04,NW,313,0.0,0.0,73,0.00,,,0.00,meteohub,2013-03-03 04:02:00,
2013-03-02 23:07:00,51.4,43.2,30.03,NW,308,0.0,0.0,73,0.00,,,0.00,meteohub,2013-03-03 04:07:00,
2013-03-02 23:12:00,51.4,43.2,30.03,NW,308,0.0,1.0,73,0.00,,,0.00,meteohub,2013-03-03 04:12:00,
2013-03-02 23:17:00,51.3,43.3,30.03,NW,308,0.0,1.0,74,0.00,,,0.00,meteohub,2013-03-03 04:17:00,
2013-03-02 23:22:00,51.1,43.2,30.03,NW,308,0.0,1.0,74,0.00,,,0.00,meteohub,2013-03-03 04:22:00,
2013-03-02 23:27:00,50.9,43.3,30.02,NW,308,0.0,0.0,75,0.00,,,0.00,meteohub,2013-03-03 04:27:00,
2013-03-02 23:32:00,50.7,43.5,30.02,NW,308,0.0,0.0,76,0.00,,,0.00,meteohub,2013-03-03 04:32:00,
2013-03-02 23:37:00,50.5,43.3,30.02,NW,323,0.0,0.0,76,0.00,,,0.00,meteohub,2013-03-03 04:37:00,
2013-03-02 23:42:00,50.7,43.7,30.02,NW,325,0.0,2.0,77,0.00,,,0.00,meteohub,2013-03-03 04:42:00,
2013-03-02 23:47:00,50.7,43.7,30.02,NW,326,0.0,3.0,77,0.00,,,0.00,meteohub,2013-03-03 04:47:00,
2013-03-02 23:52:00,51.1,44.1,30.02,NW,323,0.0,3.0,77,0.00,,,0.00,meteohub,2013-03-03 04:52:00,
2013-03-02 23:57:00,51.1,43.7,30.02,NW,323,0.0,3.0,76,0.00,,,0.00,meteohub,2013-03-03 04:57:00,